Estación Meteorológica Peña el Pijo (Robertgarden) [ 02/03/23 04:02:17 CET ]

Fecha Hora Presion(HPa) Temp (°C) Humedad % Rocio (°C) Viento ( m/s) Direccion Lluvia 1Hora(mm) Lluvia 24H(mm) LLuvia Total(mm)
2012-Jan-23 01:01:14 1011.000 0.1 83 -2.4         151.25
2012-Jan-23 02:03:28 1010.700 -0.5 85 -2.7         151.25
2012-Jan-23 03:01:45 1010.400 -0.8 87 -2.7         151.25
2012-Jan-23 04:04:24 1010.200 -0.7 87 -2.5         151.25
2012-Jan-23 05:01:17 1009.500 -0.8 88 -2.5         151.25
2012-Jan-23 06:01:11 1009.400 -1.1 88 -2.8         151.25
2012-Jan-23 07:01:11 1009.400 -1.4 88 -3.1         151.25
2012-Jan-23 08:01:14 1009.400 -0.9 89 -2.5         151.25
2012-Jan-23 09:01:12 1009.600 -1.0 89 -2.6         151.25
2012-Jan-23 10:01:18 1009.600 3.2 87 1.2         151.25
2012-Jan-23 11:01:13 1009.800 8.9 67 3.1         151.25
2012-Jan-23 12:01:18 1009.600 13.1 51 3.2         151.25
2012-Jan-23 13:01:17 1009.000 14.9 41 1.7         151.25
2012-Jan-23 14:01:17 1008.300 17.3 35 1.6         151.25
2012-Jan-23 15:01:11 1008.200 16.3 34 0.3         151.25
2012-Jan-23 16:01:13 1007.900 16.6 33 0.1         151.25
2012-Jan-23 17:01:14 1008.200 12.9 41 -0.1         151.25
2012-Jan-23 18:01:14 1008.700 10.4 47 -0.5         151.25
2012-Jan-23 19:01:11 1009.300 6.4 59 -1.1         151.25
2012-Jan-23 20:01:16 1010.100 4.1 68 -1.3         151.25
2012-Jan-23 21:01:15 1010.700 3.4 73 -1.0         151.25
2012-Jan-23 22:01:19 1010.700 2.1 77 -1.5         151.25
2012-Jan-23 23:01:13 1011.300 1.3 80 -1.8         151.25

Temperatura Máxima:17°    Temperatura Mínima:-1°
Presión Máxima:1011.300 Hpa    Presión Mínima:1007.900 Hpa


Volver